Time;durP1;ratioP1;P1;durP2;ratioP2;P2;SDS_P1;SDS_P2;PMS_P1;PMS_P2;Temp;Humidity;BMP_temperature;BMP_pressure;BME280_temperature;BME280_humidity;BME280_pressure;Samples;Min_cycle;Max_cycle;Signal;HPM_P1;HPM_P2
2023/03/27 00:01:56;;;;;;;0.50;0.40;;;2.10;99.90;;;;;;5047603;28;20281;-79
2023/03/27 00:04:23;;;;;;;0.50;0.40;;;2.10;99.90;;;;;;5055952;28;20219;-79
2023/03/27 00:06:50;;;;;;;0.50;0.50;;;2.10;99.90;;;;;;5045137;28;20206;-80
2023/03/27 00:09:18;;;;;;;0.50;0.40;;;2.00;99.90;;;;;;5050785;28;20211;-79
2023/03/27 00:11:45;;;;;;;0.50;0.47;;;2.00;99.90;;;;;;5038171;28;20231;-79
2023/03/27 00:14:14;;;;;;;0.50;0.50;;;2.00;99.90;;;;;;5036058;28;20187;-80
2023/03/27 00:16:41;;;;;;;0.50;0.40;;;2.00;99.90;;;;;;5052529;28;20238;-79
2023/03/27 00:19:08;;;;;;;8.00;0.88;;;1.90;99.90;;;;;;5050558;28;20296;-80
2023/03/27 00:21:35;;;;;;;0.50;0.50;;;2.00;99.90;;;;;;5052560;28;20198;-79
2023/03/27 00:24:02;;;;;;;0.50;0.40;;;2.00;99.90;;;;;;5044439;28;20280;-80
2023/03/27 00:26:30;;;;;;;0.50;0.40;;;2.00;99.90;;;;;;5044739;28;20194;-80
2023/03/27 00:28:57;;;;;;;0.50;0.40;;;2.00;99.90;;;;;;5036999;28;20226;-79
2023/03/27 00:31:25;;;;;;;0.50;0.40;;;1.90;99.90;;;;;;5044170;28;20318;-80
2023/03/27 00:33:52;;;;;;;0.50;0.50;;;1.90;99.90;;;;;;5038082;28;20281;-80
2023/03/27 00:36:18;;;;;;;0.50;0.40;;;1.90;99.90;;;;;;5055828;28;20282;-80
2023/03/27 00:38:45;;;;;;;0.50;0.40;;;1.80;99.90;;;;;;5054745;28;20644;-79
2023/03/27 00:41:12;;;;;;;0.50;0.40;;;1.90;99.90;;;;;;5048635;28;20277;-80
2023/03/27 00:43:42;;;;;;;3.33;0.70;;;1.90;99.90;;;;;;5055995;28;20275;-80
2023/03/27 00:46:31;;;;;;;0.50;0.40;;;1.80;99.90;;;;;;5051282;28;20197;-76
2023/03/27 00:48:59;;;;;;;0.50;0.40;;;1.80;99.90;;;;;;5038800;28;20290;-81
2023/03/27 00:51:27;;;;;;;0.50;0.40;;;1.80;99.90;;;;;;5048709;28;20254;-81
2023/03/27 00:53:54;;;;;;;0.50;0.50;;;1.70;99.90;;;;;;5034904;28;20199;-78
2023/03/27 00:56:22;;;;;;;0.50;0.40;;;1.70;99.90;;;;;;5034861;28;20191;-78
2023/03/27 00:58:52;;;;;;;0.50;0.40;;;1.70;99.90;;;;;;5053008;28;20225;-78
2023/03/27 01:01:22;;;;;;;0.50;0.40;;;1.70;99.90;;;;;;5054385;28;20205;-79
2023/03/27 01:03:52;;;;;;;19.23;2.63;;;1.60;99.90;;;;;;5052657;28;20214;-79
2023/03/27 01:06:20;;;;;;;0.50;0.45;;;1.70;99.90;;;;;;5042765;28;20196;-80
2023/03/27 01:08:47;;;;;;;0.50;0.50;;;1.60;99.90;;;;;;5036495;28;20215;-80
2023/03/27 01:11:28;;;;;;;1.20;1.10;;;1.60;99.90;;;;;;5050663;28;20191;-80
2023/03/27 01:14:07;;;;;;;0.50;0.50;;;1.60;99.90;;;;;;5046244;28;20222;-79
2023/03/27 01:16:41;;;;;;;0.50;0.50;;;1.60;99.90;;;;;;5046251;28;20524;-79
2023/03/27 01:19:41;;;;;;;0.60;0.60;;;1.60;99.90;;;;;;5058232;28;20253;-80
2023/03/27 01:22:57;;;;;;;0.50;0.40;;;1.60;99.90;;;;;;5043027;28;20199;-80
2023/03/27 01:25:51;;;;;;;0.50;0.40;;;1.60;99.90;;;;;;4981897;28;20593;-78
2023/03/27 01:28:28;;;;;;;0.50;0.40;;;1.50;99.90;;;;;;5023611;28;20250;-81
2023/03/27 01:31:02;;;;;;;0.50;0.40;;;1.50;99.90;;;;;;5041062;28;20222;-81
2023/03/27 01:34:02;;;;;;;0.55;0.47;;;1.40;99.90;;;;;;5050355;28;20198;-80
2023/03/27 01:36:51;;;;;;;0.50;0.45;;;1.40;99.90;;;;;;5031601;28;20202;-78
2023/03/27 01:39:32;;;;;;;0.50;0.40;;;1.40;99.90;;;;;;5039250;28;20221;-82
2023/03/27 01:42:05;;;;;;;0.50;0.50;;;1.50;99.90;;;;;;5049783;28;20191;-80
2023/03/27 01:44:38;;;;;;;0.50;0.40;;;1.50;99.90;;;;;;5043467;28;20225;-81
2023/03/27 01:47:10;;;;;;;0.50;0.40;;;1.50;99.90;;;;;;5038307;28;20282;-81
2023/03/27 01:49:41;;;;;;;0.50;0.40;;;1.50;99.90;;;;;;5046549;28;20287;-81
2023/03/27 01:52:14;;;;;;;0.50;0.40;;;1.40;99.90;;;;;;5042213;28;20190;-80
2023/03/27 01:54:46;;;;;;;0.50;0.40;;;1.30;99.90;;;;;;5055687;28;20289;-80
2023/03/27 01:57:19;;;;;;;0.50;0.50;;;1.30;99.90;;;;;;5057632;28;20198;-81
2023/03/27 01:59:50;;;;;;;0.50;0.47;;;1.20;99.90;;;;;;5040922;28;20286;-80
2023/03/27 02:02:21;;;;;;;0.50;0.40;;;1.20;99.90;;;;;;5057698;28;20270;-81
2023/03/27 02:04:52;;;;;;;0.50;0.40;;;1.20;99.90;;;;;;5047956;28;20221;-80
2023/03/27 02:07:26;;;;;;;0.50;0.50;;;1.20;99.90;;;;;;5037830;28;20219;-80
2023/03/27 02:09:58;;;;;;;3.40;3.20;;;1.20;99.90;;;;;;5037765;28;20206;-79
2023/03/27 02:12:30;;;;;;;0.50;0.40;;;1.10;99.90;;;;;;5043166;28;20213;-80
2023/03/27 02:15:02;;;;;;;0.50;0.40;;;1.10;99.90;;;;;;5049240;28;20678;-80
2023/03/27 02:17:32;;;;;;;0.50;0.40;;;1.20;99.90;;;;;;5058425;28;20644;-81
2023/03/27 02:20:08;;;;;;;0.50;0.40;;;1.10;99.90;;;;;;5042068;28;20302;-79
2023/03/27 02:22:35;;;;;;;0.50;0.40;;;1.20;99.90;;;;;;5043159;28;20206;-80
2023/03/27 02:25:04;;;;;;;0.50;0.40;;;1.10;99.90;;;;;;5040247;28;20312;-79
2023/03/27 02:27:36;;;;;;;0.70;0.70;;;1.10;99.90;;;;;;5041739;28;20259;-80
2023/03/27 02:30:14;;;;;;;0.50;0.40;;;1.10;99.90;;;;;;5053666;28;20199;-78
2023/03/27 02:32:48;;;;;;;0.50;0.40;;;1.10;99.90;;;;;;5038011;28;20199;-80
2023/03/27 02:35:28;;;;;;;0.50;0.40;;;1.10;99.90;;;;;;5034794;28;20217;-82
2023/03/27 02:38:03;;;;;;;0.50;0.50;;;1.10;99.90;;;;;;5041123;28;20315;-80
2023/03/27 02:40:43;;;;;;;0.50;0.40;;;1.10;99.90;;;;;;5057957;28;20190;-80
2023/03/27 02:43:16;;;;;;;0.50;0.40;;;1.00;99.90;;;;;;5057549;28;20286;-80
2023/03/27 02:45:52;;;;;;;0.50;0.40;;;1.00;99.90;;;;;;5056946;28;20206;-79
2023/03/27 02:48:26;;;;;;;1.58;1.48;;;1.10;99.90;;;;;;5056940;28;20210;-80
2023/03/27 02:50:56;;;;;;;0.50;0.40;;;1.00;99.90;;;;;;5057315;28;20285;-81
2023/03/27 02:53:27;;;;;;;0.50;0.40;;;1.10;99.90;;;;;;5056843;28;20186;-80
2023/03/27 02:55:58;;;;;;;0.50;0.40;;;1.10;99.90;;;;;;5047980;28;20222;-80
2023/03/27 02:58:31;;;;;;;3.20;3.00;;;1.10;99.90;;;;;;5036854;28;20215;-79
2023/03/27 03:01:00;;;;;;;0.50;0.40;;;1.00;99.90;;;;;;5051242;28;20202;-80
2023/03/27 03:03:34;;;;;;;0.50;0.40;;;1.00;99.90;;;;;;5052055;28;20213;-80
2023/03/27 03:06:05;;;;;;;0.50;0.50;;;1.00;99.90;;;;;;5052684;28;20411;-80
2023/03/27 03:08:37;;;;;;;0.50;0.40;;;1.00;99.90;;;;;;5048535;28;20227;-81
2023/03/27 03:11:08;;;;;;;0.50;0.40;;;1.00;99.90;;;;;;5055214;28;20225;-77
2023/03/27 03:13:35;;;;;;;0.50;0.40;;;1.10;99.90;;;;;;5058497;28;20596;-80
2023/03/27 03:16:02;;;;;;;0.50;0.40;;;1.00;99.90;;;;;;5038871;28;20223;-79
2023/03/27 03:18:29;;;;;;;0.50;0.45;;;0.90;99.90;;;;;;5043593;28;20224;-81
2023/03/27 03:20:56;;;;;;;0.50;0.40;;;0.90;99.90;;;;;;5041182;28;20286;-81
2023/03/27 03:23:24;;;;;;;0.50;0.40;;;0.90;99.90;;;;;;5056995;28;20302;-79
2023/03/27 03:25:51;;;;;;;0.50;0.40;;;0.80;99.90;;;;;;5056583;28;20277;-81
2023/03/27 03:28:19;;;;;;;0.50;0.40;;;0.80;99.90;;;;;;5052295;28;20222;-81
2023/03/27 03:30:50;;;;;;;0.60;0.55;;;0.80;99.90;;;;;;5054066;28;20245;-81
2023/03/27 03:33:18;;;;;;;0.50;0.40;;;0.80;99.90;;;;;;5045226;28;20191;-80
2023/03/27 03:35:47;;;;;;;0.50;0.40;;;0.90;99.90;;;;;;5037008;28;20294;-81
2023/03/27 03:38:23;;;;;;;0.50;0.40;;;0.80;99.90;;;;;;5031976;28;20238;-80
2023/03/27 03:40:51;;;;;;;0.50;0.47;;;0.90;99.90;;;;;;5047940;28;20194;-80
2023/03/27 03:43:20;;;;;;;0.50;0.50;;;0.90;99.90;;;;;;5042171;28;20233;-80
2023/03/27 03:45:47;;;;;;;0.50;0.40;;;0.90;99.90;;;;;;5057224;28;20205;-79
2023/03/27 03:48:14;;;;;;;0.50;0.40;;;0.90;99.90;;;;;;5044607;28;20306;-80
2023/03/27 03:50:41;;;;;;;0.50;0.40;;;0.90;99.90;;;;;;5052215;28;20197;-80
2023/03/27 03:53:08;;;;;;;0.50;0.40;;;0.90;99.90;;;;;;5044938;28;20675;-78
2023/03/27 03:55:35;;;;;;;0.50;0.40;;;1.00;99.90;;;;;;5051335;28;20290;-80
2023/03/27 03:58:02;;;;;;;0.50;0.40;;;0.90;99.90;;;;;;5055738;28;20281;-79
2023/03/27 04:00:33;;;;;;;0.50;0.50;;;1.00;99.90;;;;;;5056364;28;20217;-80
2023/03/27 04:03:00;;;;;;;0.50;0.40;;;1.00;99.90;;;;;;5038030;28;20195;-79
2023/03/27 04:05:27;;;;;;;26.45;1.75;;;1.10;99.90;;;;;;5050226;28;20207;-80
2023/03/27 04:07:54;;;;;;;1.92;1.77;;;1.10;99.90;;;;;;5055337;28;20218;-79
2023/03/27 04:10:21;;;;;;;0.50;0.40;;;1.10;99.90;;;;;;5040144;28;20195;-80
2023/03/27 04:12:48;;;;;;;0.52;0.50;;;1.30;99.90;;;;;;5038740;28;20611;-79
2023/03/27 04:15:15;;;;;;;0.50;0.50;;;1.30;99.90;;;;;;5027574;28;20198;-81
2023/03/27 04:17:44;;;;;;;1.05;1.02;;;1.30;99.90;;;;;;5050953;28;20237;-81
2023/03/27 04:20:12;;;;;;;0.68;0.68;;;1.30;99.90;;;;;;5053130;28;20191;-81
2023/03/27 04:22:45;;;;;;;0.50;0.40;;;1.40;99.90;;;;;;5043501;28;20202;-80
2023/03/27 04:25:14;;;;;;;11.77;0.88;;;1.40;99.90;;;;;;5043220;28;20338;-78
2023/03/27 04:27:42;;;;;;;0.50;0.40;;;1.40;99.90;;;;;;5042904;28;20218;-79
2023/03/27 04:30:15;;;;;;;0.50;0.50;;;1.30;99.90;;;;;;5044663;28;20202;-79
2023/03/27 04:32:43;;;;;;;0.50;0.40;;;1.30;99.90;;;;;;5044079;28;20199;-81
2023/03/27 04:35:10;;;;;;;0.50;0.40;;;1.30;99.90;;;;;;5044268;28;20272;-78
2023/03/27 04:37:40;;;;;;;0.50;0.40;;;1.30;99.90;;;;;;5035805;28;20219;-80
2023/03/27 04:40:10;;;;;;;0.50;0.40;;;1.20;99.90;;;;;;5036038;28;20199;-80
2023/03/27 04:42:41;;;;;;;0.50;0.40;;;1.20;99.90;;;;;;5035068;28;20196;-82
2023/03/27 04:45:11;;;;;;;0.50;0.40;;;1.20;99.90;;;;;;5034851;28;20219;-80
2023/03/27 04:47:38;;;;;;;0.50;0.40;;;1.20;99.90;;;;;;5035322;28;20302;-82
2023/03/27 04:50:08;;;;;;;0.70;0.70;;;1.20;99.90;;;;;;5043498;28;20278;-81
2023/03/27 04:52:34;;;;;;;0.50;0.40;;;1.30;99.90;;;;;;5040329;28;20221;-80
2023/03/27 04:55:02;;;;;;;0.50;0.40;;;1.30;99.90;;;;;;5045443;28;20282;-79
2023/03/27 04:57:30;;;;;;;0.50;0.50;;;1.40;99.90;;;;;;5035132;28;20207;-80
2023/03/27 04:59:57;;;;;;;0.68;0.68;;;1.50;99.90;;;;;;5053034;28;20692;-79
2023/03/27 05:02:26;;;;;;;0.60;0.60;;;1.60;99.90;;;;;;5055269;28;20190;-79
2023/03/27 05:04:57;;;;;;;0.50;0.43;;;1.60;99.90;;;;;;5056783;28;20218;-79
2023/03/27 05:07:27;;;;;;;0.50;0.50;;;1.70;99.90;;;;;;5047904;28;20210;-79
2023/03/27 05:09:56;;;;;;;0.65;0.63;;;1.70;99.90;;;;;;5055674;28;20198;-80
2023/03/27 05:12:22;;;;;;;0.50;0.40;;;1.80;99.90;;;;;;5054876;28;20201;-80
2023/03/27 05:14:49;;;;;;;0.50;0.50;;;1.80;99.90;;;;;;5055180;28;20671;-79
2023/03/27 05:17:16;;;;;;;0.60;0.60;;;1.80;99.90;;;;;;5052378;28;20286;-80
2023/03/27 05:19:44;;;;;;;1.13;1.13;;;1.90;99.90;;;;;;5035305;28;20195;-79
2023/03/27 05:22:11;;;;;;;0.50;0.40;;;1.90;99.90;;;;;;5045249;28;20198;-80
2023/03/27 05:24:39;;;;;;;0.50;0.40;;;1.90;99.90;;;;;;5054475;28;20302;-82
2023/03/27 05:27:06;;;;;;;0.65;0.65;;;2.00;99.90;;;;;;5054027;28;20543;-79
2023/03/27 05:29:32;;;;;;;0.50;0.40;;;2.10;99.90;;;;;;5054440;28;20198;-81
2023/03/27 05:31:59;;;;;;;0.50;0.50;;;2.10;99.90;;;;;;5045594;28;20636;-80
2023/03/27 05:34:27;;;;;;;0.50;0.40;;;2.20;99.90;;;;;;5043439;28;20259;-81
2023/03/27 05:36:54;;;;;;;0.85;0.85;;;2.30;99.90;;;;;;5051362;28;20222;-80
2023/03/27 05:39:24;;;;;;;0.60;0.60;;;2.30;99.90;;;;;;5038397;28;20286;-80
2023/03/27 05:41:52;;;;;;;0.50;0.40;;;2.30;99.90;;;;;;5054135;28;20206;-81
2023/03/27 05:44:19;;;;;;;0.50;0.40;;;2.40;99.90;;;;;;5051514;28;20295;-81
2023/03/27 05:46:46;;;;;;;0.50;0.43;;;2.40;99.90;;;;;;5035111;28;20227;-80
2023/03/27 05:49:13;;;;;;;0.50;0.40;;;2.40;99.90;;;;;;5035180;28;20279;-80
2023/03/27 05:51:40;;;;;;;0.50;0.40;;;2.50;99.90;;;;;;5034780;28;20291;-79
2023/03/27 05:54:07;;;;;;;0.70;0.70;;;2.50;99.90;;;;;;5034637;28;20254;-80
2023/03/27 05:56:33;;;;;;;0.50;0.50;;;2.60;99.90;;;;;;5034558;28;20544;-80
2023/03/27 05:59:02;;;;;;;0.50;0.40;;;2.70;99.90;;;;;;5034389;28;20243;-79
2023/03/27 06:01:29;;;;;;;0.50;0.40;;;2.70;99.90;;;;;;5034525;28;20651;-79
2023/03/27 06:03:56;;;;;;;0.50;0.40;;;2.80;99.90;;;;;;5045309;28;20194;-82
2023/03/27 06:06:22;;;;;;;0.70;0.70;;;2.80;99.90;;;;;;5058467;28;20262;-79
2023/03/27 06:08:49;;;;;;;0.50;0.40;;;2.90;99.90;;;;;;5059525;28;20302;-78
2023/03/27 06:11:16;;;;;;;0.50;0.50;;;3.00;99.90;;;;;;5059668;28;20581;-80
2023/03/27 06:13:43;;;;;;;0.95;0.90;;;3.10;99.90;;;;;;5058179;28;20203;-81
2023/03/27 06:16:11;;;;;;;0.50;0.50;;;3.10;99.90;;;;;;5057321;28;20654;-80
2023/03/27 06:18:38;;;;;;;0.50;0.40;;;3.20;99.90;;;;;;5057007;28;20757;-80
2023/03/27 06:21:05;;;;;;;0.50;0.40;;;3.30;99.90;;;;;;5055790;28;20286;-79
2023/03/27 06:23:32;;;;;;;0.70;0.70;;;3.60;99.90;;;;;;5037228;28;20191;-81
2023/03/27 06:25:59;;;;;;;0.50;0.50;;;3.90;99.90;;;;;;5037628;28;20215;-81
2023/03/27 06:28:26;;;;;;;0.50;0.40;;;4.40;99.90;;;;;;5037301;28;20610;-81
2023/03/27 06:30:53;;;;;;;0.90;0.60;;;5.10;99.90;;;;;;5036283;28;20233;-80
2023/03/27 06:33:21;;;;;;;0.50;0.40;;;5.80;99.90;;;;;;5036110;28;20740;-82
2023/03/27 06:35:48;;;;;;;0.50;0.40;;;6.40;99.90;;;;;;5036567;28;20234;-81
2023/03/27 06:38:17;;;;;;;0.68;0.60;;;6.50;99.90;;;;;;5036291;28;20265;-82
2023/03/27 06:40:44;;;;;;;0.50;0.40;;;6.90;99.90;;;;;;5037133;28;20611;-80
2023/03/27 06:43:12;;;;;;;0.50;0.40;;;7.90;99.90;;;;;;5055145;28;20225;-80
2023/03/27 06:45:44;;;;;;;0.50;0.40;;;9.20;99.90;;;;;;5057661;28;20215;-80
2023/03/27 06:48:11;;;;;;;0.50;0.40;;;10.80;99.90;;;;;;5056716;28;20217;-81
2023/03/27 06:50:39;;;;;;;0.53;0.53;;;12.20;99.90;;;;;;5056269;28;20190;-82
2023/03/27 06:53:06;;;;;;;0.50;0.40;;;13.30;99.90;;;;;;5039829;28;20522;-83
2023/03/27 06:55:35;;;;;;;0.50;0.40;;;14.60;99.90;;;;;;5053523;28;20437;-79
2023/03/27 06:58:04;;;;;;;0.50;0.40;;;15.80;99.90;;;;;;5045832;28;20536;-80
2023/03/27 07:00:34;;;;;;;0.67;0.67;;;16.70;91.70;;;;;;5040412;28;20889;-83
2023/03/27 07:03:03;;;;;;;0.50;0.30;;;17.50;88.00;;;;;;5047336;28;20445;-81
2023/03/27 07:05:35;;;;;;;0.50;0.30;;;17.90;80.30;;;;;;5055737;28;20519;-82
2023/03/27 07:08:05;;;;;;;0.50;0.30;;;18.30;73.20;;;;;;5046612;28;20465;-80
2023/03/27 07:10:32;;;;;;;0.50;0.30;;;18.10;72.80;;;;;;5035399;28;20438;-81
2023/03/27 07:12:59;;;;;;;0.60;0.50;;;17.60;71.90;;;;;;5035573;28;20478;-82
2023/03/27 07:15:26;;;;;;;0.50;0.40;;;17.40;70.80;;;;;;5027179;28;20473;-81
2023/03/27 07:17:54;;;;;;;0.50;0.40;;;16.10;71.40;;;;;;5035852;28;20458;-81
2023/03/27 07:20:21;;;;;;;0.50;0.40;;;15.70;74.10;;;;;;5035545;28;20446;-79
2023/03/27 07:22:48;;;;;;;0.60;0.60;;;15.10;73.70;;;;;;5049932;28;20525;-80
2023/03/27 07:25:16;;;;;;;0.50;0.50;;;14.20;75.10;;;;;;5054861;28;20544;-79
2023/03/27 07:27:43;;;;;;;0.50;0.40;;;13.60;76.90;;;;;;5054931;28;20992;-80
2023/03/27 07:30:12;;;;;;;0.50;0.40;;;12.00;80.40;;;;;;5038105;28;20469;-84
2023/03/27 07:32:40;;;;;;;0.50;0.40;;;11.40;88.20;;;;;;5037134;28;20593;-81
2023/03/27 07:35:08;;;;;;;0.77;0.60;;;10.90;95.20;;;;;;5036769;28;20472;-81
2023/03/27 07:37:36;;;;;;;0.68;0.68;;;10.10;99.90;;;;;;5035378;28;20468;-81
2023/03/27 07:40:05;;;;;;;0.50;0.40;;;9.40;99.90;;;;;;5035855;28;20249;-82
2023/03/27 07:42:34;;;;;;;0.50;0.40;;;9.00;99.90;;;;;;5035646;28;20666;-80
2023/03/27 07:45:00;;;;;;;0.50;0.40;;;8.70;99.90;;;;;;5035736;28;20247;-81
2023/03/27 07:47:27;;;;;;;5.38;1.35;;;8.30;99.90;;;;;;5036260;28;20652;-81
2023/03/27 07:49:54;;;;;;;0.50;0.40;;;7.80;99.90;;;;;;5036417;28;20195;-81
2023/03/27 07:52:21;;;;;;;0.50;0.50;;;7.30;99.90;;;;;;5036569;28;20225;-79
2023/03/27 07:54:48;;;;;;;0.50;0.40;;;7.10;99.90;;;;;;5036497;28;20196;-79
2023/03/27 07:57:15;;;;;;;0.50;0.40;;;6.80;99.90;;;;;;5036466;28;20195;-81
2023/03/27 07:59:45;;;;;;;0.50;0.40;;;6.70;99.90;;;;;;5035857;28;20263;-81
2023/03/27 08:02:12;;;;;;;0.52;0.50;;;6.50;99.90;;;;;;5035350;28;20205;-83
2023/03/27 08:04:39;;;;;;;0.50;0.40;;;6.70;99.90;;;;;;5036011;28;20198;-82
2023/03/27 08:07:06;;;;;;;0.50;0.40;;;7.60;99.90;;;;;;5036041;28;20642;-83
2023/03/27 08:09:33;;;;;;;0.50;0.45;;;9.20;99.90;;;;;;5035746;28;20206;-83
2023/03/27 08:12:00;;;;;;;0.50;0.40;;;11.40;99.90;;;;;;5036269;28;20778;-81
2023/03/27 08:14:27;;;;;;;0.50;0.40;;;13.20;99.90;;;;;;5035732;28;20521;-81
2023/03/27 08:16:55;;;;;;;0.50;0.40;;;14.70;98.70;;;;;;5034736;28;20442;-81
2023/03/27 08:19:22;;;;;;;0.50;0.43;;;15.50;91.20;;;;;;5035677;28;20526;-81
2023/03/27 08:21:49;;;;;;;1.57;0.43;;;16.20;85.70;;;;;;5036258;28;20972;-81
2023/03/27 08:24:16;;;;;;;0.50;0.40;;;16.70;79.50;;;;;;5045635;28;20437;-79
2023/03/27 08:26:43;;;;;;;0.50;0.30;;;16.70;76.10;;;;;;5046531;28;20476;-81
2023/03/27 08:29:10;;;;;;;0.50;0.40;;;17.20;74.90;;;;;;5054581;28;20465;-81
2023/03/27 08:31:38;;;;;;;0.50;0.40;;;18.00;73.40;;;;;;5055644;28;20445;-81
2023/03/27 08:34:07;;;;;;;0.70;0.50;;;18.50;72.20;;;;;;5054954;28;20499;-80
2023/03/27 08:36:34;;;;;;;1.27;1.00;;;18.60;68.00;;;;;;5051073;28;20457;-81
2023/03/27 08:39:01;;;;;;;0.50;0.30;;;18.10;67.60;;;;;;5035137;28;20488;-81
2023/03/27 08:41:30;;;;;;;1.73;1.63;;;17.50;67.00;;;;;;5046411;28;20452;-81
2023/03/27 08:44:02;;;;;;;0.50;0.40;;;17.30;69.00;;;;;;5055171;28;20498;-79
2023/03/27 08:46:32;;;;;;;0.70;0.70;;;16.30;67.40;;;;;;5054758;28;20477;-81
2023/03/27 08:49:08;;;;;;;0.50;0.50;;;15.40;70.40;;;;;;5054559;28;20496;-79
2023/03/27 08:51:41;;;;;;;0.50;0.40;;;14.60;71.30;;;;;;5047136;28;20486;-81
2023/03/27 08:54:14;;;;;;;0.50;0.40;;;13.40;73.90;;;;;;5055239;28;20512;-81
2023/03/27 08:56:41;;;;;;;0.50;0.40;;;12.60;76.50;;;;;;5055323;28;20437;-81
2023/03/27 08:59:13;;;;;;;0.50;0.40;;;11.80;80.10;;;;;;5054222;28;20490;-80
2023/03/27 09:01:46;;;;;;;0.50;0.40;;;11.80;84.90;;;;;;5034937;28;20438;-82
2023/03/27 09:04:22;;;;;;;0.50;0.40;;;12.10;89.60;;;;;;5035426;28;20442;-79
2023/03/27 09:06:57;;;;;;;0.60;0.57;;;12.50;90.70;;;;;;5054505;28;20568;-82
2023/03/27 09:09:33;;;;;;;0.50;0.40;;;14.30;84.00;;;;;;5054487;28;20464;-81
2023/03/27 09:12:10;;;;;;;0.60;0.40;;;15.30;80.60;;;;;;5054466;28;20437;-81
2023/03/27 09:14:40;;;;;;;0.50;0.40;;;14.90;72.80;;;;;;5054935;28;20472;-81
2023/03/27 09:17:16;;;;;;;0.50;0.40;;;15.00;77.00;;;;;;5054258;28;20830;-78
2023/03/27 09:19:53;;;;;;;0.50;0.40;;;14.90;75.60;;;;;;5050031;28;20441;-78
2023/03/27 09:22:23;;;;;;;0.50;0.40;;;14.30;75.90;;;;;;5033963;28;20436;-81
2023/03/27 09:24:54;;;;;;;1.10;1.10;;;13.80;78.00;;;;;;5034929;28;20426;-81
2023/03/27 09:27:25;;;;;;;0.50;0.40;;;15.30;81.00;;;;;;5034360;28;20465;-81
2023/03/27 09:29:59;;;;;;;0.60;0.50;;;16.60;74.90;;;;;;5034733;28;20454;-81
2023/03/27 09:32:26;;;;;;;0.50;0.40;;;16.10;70.50;;;;;;5034725;28;20813;-81
2023/03/27 09:34:55;;;;;;;1.60;1.00;;;15.40;70.30;;;;;;5034497;28;20445;-81
2023/03/27 09:37:22;;;;;;;0.50;0.40;;;15.20;72.30;;;;;;5034602;28;20815;-81
2023/03/27 09:39:52;;;;;;;0.50;0.40;;;13.80;73.70;;;;;;5052618;28;20437;-81
2023/03/27 09:42:23;;;;;;;0.60;0.43;;;12.50;77.10;;;;;;5058509;28;20463;-81
2023/03/27 09:44:54;;;;;;;0.50;0.40;;;12.20;80.60;;;;;;5058814;28;20472;-81
2023/03/27 09:47:27;;;;;;;0.50;0.40;;;11.70;80.80;;;;;;5057341;28;20481;-83
2023/03/27 09:49:59;;;;;;;0.50;0.40;;;10.70;84.80;;;;;;5042362;28;20533;-82
2023/03/27 09:52:35;;;;;;;0.50;0.40;;;11.30;91.90;;;;;;5036909;28;20187;-80
2023/03/27 09:55:02;;;;;;;0.50;0.40;;;13.10;91.90;;;;;;5037558;28;20529;-81
2023/03/27 09:57:32;;;;;;;0.60;0.40;;;14.50;82.80;;;;;;5037068;28;20485;-79
2023/03/27 10:00:06;;;;;;;0.50;0.40;;;14.90;78.10;;;;;;5037577;28;20442;-81
2023/03/27 10:02:33;;;;;;;0.50;0.40;;;14.20;73.90;;;;;;5037507;28;20443;-80
2023/03/27 10:05:10;;;;;;;0.50;0.40;;;13.30;75.90;;;;;;5038895;28;20448;-81
2023/03/27 10:07:38;;;;;;;0.50;0.40;;;12.70;78.80;;;;;;5052011;28;20451;-80
2023/03/27 10:10:10;;;;;;;0.53;0.53;;;12.20;79.20;;;;;;5058616;28;20433;-77
2023/03/27 10:12:38;;;;;;;0.50;0.40;;;11.90;80.90;;;;;;5029772;28;20473;-81
2023/03/27 10:15:24;;;;;;;0.50;0.40;;;11.40;83.50;;;;;;5037862;28;20940;-80
2023/03/27 10:17:51;;;;;;;0.50;0.40;;;11.20;88.00;;;;;;5036695;28;20473;-82
2023/03/27 10:20:21;;;;;;;0.50;0.40;;;12.20;88.80;;;;;;5037367;28;20828;-80
2023/03/27 10:22:52;;;;;;;0.50;0.40;;;13.10;84.50;;;;;;5037355;28;20450;-81
2023/03/27 10:25:21;;;;;;;0.50;0.40;;;14.20;78.70;;;;;;5055422;28;20796;-81
2023/03/27 10:27:48;;;;;;;0.50;0.40;;;14.60;77.20;;;;;;5057073;28;20817;-81
2023/03/27 10:30:26;;;;;;;0.50;0.40;;;15.40;76.60;;;;;;5057184;28;20445;-81
2023/03/27 10:32:53;;;;;;;0.60;0.40;;;16.90;74.70;;;;;;5057908;28;20495;-81
2023/03/27 10:35:27;;;;;;;0.50;0.40;;;18.00;65.50;;;;;;5056107;28;20528;-81
2023/03/27 10:37:55;;;;;;;0.50;0.30;;;19.50;61.90;;;;;;5038342;28;20465;-82
2023/03/27 10:40:26;;;;;;;0.60;0.50;;;19.60;60.00;;;;;;5048066;28;20441;-83
2023/03/27 10:42:56;;;;;;;2.60;1.17;;;18.60;58.10;;;;;;5058021;28;20441;-81
2023/03/27 10:45:24;;;;;;;0.60;0.50;;;16.90;57.10;;;;;;5057635;28;20445;-81
2023/03/27 10:47:54;;;;;;;0.50;0.30;;;15.40;59.20;;;;;;5057358;28;20450;-83
2023/03/27 10:50:28;;;;;;;0.60;0.40;;;14.30;61.20;;;;;;5056208;28;20473;-83
2023/03/27 10:53:02;;;;;;;0.53;0.37;;;14.90;63.30;;;;;;5057197;28;20520;-83
2023/03/27 10:55:40;;;;;;;0.50;0.40;;;15.60;63.10;;;;;;5038640;28;20461;-83
2023/03/27 10:58:22;;;;;;;0.50;0.30;;;15.50;63.90;;;;;;5037013;28;20903;-82
2023/03/27 11:00:54;;;;;;;0.50;0.40;;;14.90;63.10;;;;;;5036476;28;20536;-82
2023/03/27 11:03:28;;;;;;;0.83;0.40;;;15.30;66.40;;;;;;5036603;28;20456;-82
2023/03/27 11:05:59;;;;;;;0.60;0.50;;;15.40;62.30;;;;;;5037093;28;20477;-82
2023/03/27 11:08:33;;;;;;;0.50;0.40;;;15.00;62.80;;;;;;5036393;28;20821;-82
2023/03/27 11:11:07;;;;;;;2.00;0.80;;;14.00;61.20;;;;;;5044004;28;20871;-81
2023/03/27 11:13:38;;;;;;;0.60;0.57;;;12.10;69.80;;;;;;5056497;28;20801;-81
2023/03/27 11:16:16;;;;;;;0.50;0.47;;;9.50;99.90;;;;;;5056394;28;20191;-81
2023/03/27 11:18:48;;;;;;;0.50;0.50;;;8.50;99.90;;;;;;5042828;28;20258;-80
2023/03/27 11:21:21;;;;;;;0.50;0.40;;;7.80;99.90;;;;;;5035866;28;20192;-81
2023/03/27 11:23:53;;;;;;;0.50;0.40;;;7.20;99.90;;;;;;5049887;28;20261;-82
2023/03/27 11:26:23;;;;;;;0.50;0.40;;;6.80;99.90;;;;;;5054390;28;20421;-80
2023/03/27 11:28:56;;;;;;;0.77;0.77;;;6.50;99.90;;;;;;5036460;28;20215;-80
2023/03/27 11:31:36;;;;;;;0.50;0.40;;;7.10;99.90;;;;;;5035967;28;20195;-80
2023/03/27 11:34:09;;;;;;;0.50;0.40;;;8.60;99.90;;;;;;5051439;28;20275;-81
2023/03/27 11:36:43;;;;;;;0.50;0.40;;;10.20;99.90;;;;;;5055986;28;20680;-81
2023/03/27 11:39:20;;;;;;;0.50;0.40;;;11.40;99.90;;;;;;5046693;28;20472;-79
2023/03/27 11:41:52;;;;;;;0.50;0.40;;;12.40;99.90;;;;;;5036099;28;20489;-83
2023/03/27 11:44:20;;;;;;;0.50;0.40;;;13.00;99.90;;;;;;5047332;28;20433;-81
2023/03/27 11:47:00;;;;;;;0.50;0.40;;;12.80;99.90;;;;;;5043209;28;20489;-83
2023/03/27 11:49:49;;;;;;;1.10;0.50;;;12.70;99.90;;;;;;5036326;28;20529;-83
2023/03/27 11:52:30;;;;;;;0.50;0.40;;;12.30;99.90;;;;;;5035146;28;20446;-82
2023/03/27 11:55:10;;;;;;;0.60;0.50;;;11.30;99.90;;;;;;5055828;28;20524;-80
2023/03/27 11:57:47;;;;;;;1.00;0.60;;;10.80;99.90;;;;;;5043408;28;20221;-83
2023/03/27 12:00:24;;;;;;;0.60;0.60;;;11.30;99.90;;;;;;5035183;28;20442;-82
2023/03/27 12:03:13;;;;;;;1.13;0.50;;;12.10;99.90;;;;;;5049857;28;20444;-82
2023/03/27 12:05:52;;;;;;;0.50;0.37;;;12.70;99.90;;;;;;5051819;28;20514;-82
2023/03/27 12:08:29;;;;;;;0.50;0.40;;;12.70;99.90;;;;;;5045339;28;20461;-82
2023/03/27 12:10:57;;;;;;;0.50;0.40;;;11.40;99.90;;;;;;5055473;28;20441;-83
2023/03/27 12:13:55;;;;;;;0.50;0.50;;;10.90;99.90;;;;;;5046489;28;20556;-81
2023/03/27 12:16:45;;;;;;;0.50;0.40;;;11.60;99.90;;;;;;5053852;28;20446;-82
2023/03/27 12:19:34;;;;;;;0.50;0.40;;;12.60;99.90;;;;;;5054255;28;20465;-80
2023/03/27 12:22:10;;;;;;;0.50;0.40;;;13.60;98.50;;;;;;5035030;28;20438;-80
2023/03/27 12:24:48;;;;;;;0.50;0.40;;;14.20;92.30;;;;;;5027825;28;20438;-83
2023/03/27 12:27:43;;;;;;;0.50;0.37;;;15.60;88.50;;;;;;5044241;28;20832;-83
2023/03/27 12:30:26;;;;;;;0.50;0.30;;;16.00;76.80;;;;;;5054635;28;20441;-82
2023/03/27 12:33:19;;;;;;;0.50;0.30;;;16.80;77.20;;;;;;5055140;28;20437;-80
2023/03/27 12:35:48;;;;;;;0.50;0.30;;;17.30;69.10;;;;;;5027869;28;20449;-80
2023/03/27 12:38:23;;;;;;;0.50;0.30;;;17.90;67.20;;;;;;5034904;28;20453;-82
2023/03/27 12:41:01;;;;;;;0.50;0.30;;;18.20;65.90;;;;;;5035473;28;20777;-82
2023/03/27 12:43:32;;;;;;;0.50;0.30;;;18.70;65.60;;;;;;5034296;28;20438;-83
2023/03/27 12:46:33;;;;;;;2.50;0.60;;;19.00;63.70;;;;;;5049313;28;20498;-80
2023/03/27 12:49:04;;;;;;;0.50;0.30;;;17.80;60.10;;;;;;5021795;28;20511;-81
2023/03/27 12:51:42;;;;;;;9.93;2.00;;;17.40;61.20;;;;;;5054780;28;20472;-82
2023/03/27 12:54:24;;;;;;;0.50;0.40;;;18.00;66.80;;;;;;5054557;28;20441;-83
2023/03/27 12:57:03;;;;;;;0.50;0.40;;;17.30;62.60;;;;;;5029264;28;20516;-81
2023/03/27 12:59:31;;;;;;;0.93;0.60;;;15.90;64.20;;;;;;5034342;28;20469;-81
2023/03/27 13:02:26;;;;;;;0.50;0.40;;;13.80;70.10;;;;;;5034176;28;20442;-82
2023/03/27 13:05:20;;;;;;;0.50;0.40;;;12.30;74.20;;;;;;5034598;28;20484;-83
2023/03/27 13:07:58;;;;;;;0.60;0.50;;;10.90;92.20;;;;;;5034344;28;20564;-82
2023/03/27 13:10:39;;;;;;;0.50;0.40;;;10.10;99.90;;;;;;5034411;28;20442;-82
2023/03/27 13:13:38;;;;;;;0.50;0.40;;;9.60;99.90;;;;;;5036233;28;20199;-83
2023/03/27 13:16:20;;;;;;;0.50;0.40;;;8.80;99.90;;;;;;5034425;28;20195;-81